Time;durP1;ratioP1;P1;durP2;ratioP2;P2;SDS_P1;SDS_P2;PMS_P1;PMS_P2;Temp;Humidity;BMP_temperature;BMP_pressure;BME280_temperature;BME280_humidity;BME280_pressure;Samples;Min_cycle;Max_cycle;Signal;HPM_P1;HPM_P2
2021/01/30 00:00:43;;;;;;;25.17;14.28;;;;;;;-2.07;78.51;97233.02;1850992;76;21186;-62
2021/01/30 00:03:14;;;;;;;22.85;14.00;;;;;;;-2.04;78.30;97234.37;1851116;77;21127;-61
2021/01/30 00:05:42;;;;;;;23.57;14.50;;;;;;;-2.06;77.96;97239.82;1851010;76;21371;-62
2021/01/30 00:08:14;;;;;;;22.07;13.80;;;;;;;-2.09;78.13;97251.06;1850992;77;21127;-62
2021/01/30 00:10:43;;;;;;;26.52;13.95;;;;;;;-2.11;78.13;97256.50;1850959;76;21283;-61
2021/01/30 00:13:11;;;;;;;28.50;14.50;;;;;;;-2.12;78.27;97248.45;1851093;76;21131;-61
2021/01/30 00:15:39;;;;;;;24.50;13.60;;;;;;;-2.12;78.10;97254.77;1851162;77;21122;-61
2021/01/30 00:18:08;;;;;;;27.15;14.73;;;;;;;-2.14;78.05;97258.90;1851142;77;21204;-62
2021/01/30 00:20:38;;;;;;;25.90;14.45;;;;;;;-2.16;78.20;97251.70;1851081;76;21142;-61
2021/01/30 00:23:08;;;;;;;25.85;14.03;;;;;;;-2.17;78.19;97263.86;1851002;76;21099;-61
2021/01/30 00:25:39;;;;;;;25.48;13.62;;;;;;;-2.21;78.18;97270.49;1850942;76;21121;-61
2021/01/30 00:28:08;;;;;;;22.93;13.13;;;;;;;-2.27;78.13;97269.00;1850968;77;21292;-61
2021/01/30 00:30:36;;;;;;;23.55;14.25;;;;;;;-2.31;78.23;97270.99;1850961;77;21343;-61
2021/01/30 00:33:06;;;;;;;22.95;12.85;;;;;;;-2.32;78.14;97278.51;1850897;77;21360;-61
2021/01/30 00:35:35;;;;;;;24.12;13.32;;;;;;;-2.37;78.28;97280.02;1850919;77;21107;-61
2021/01/30 00:38:04;;;;;;;27.85;14.25;;;;;;;-2.42;78.28;97275.69;1850937;77;21157;-61
2021/01/30 00:40:33;;;;;;;24.45;13.83;;;;;;;-2.44;78.50;97277.30;1851042;77;21122;-61
2021/01/30 00:43:05;;;;;;;24.15;13.53;;;;;;;-2.47;78.42;97280.98;1851023;77;21134;-62
2021/01/30 00:45:33;;;;;;;22.22;12.55;;;;;;;-2.52;78.44;97277.82;1850968;77;21111;-61
2021/01/30 00:48:02;;;;;;;24.95;13.95;;;;;;;-2.57;78.42;97281.47;1850969;76;21130;-61
2021/01/30 00:50:29;;;;;;;22.35;13.38;;;;;;;-2.58;78.51;97277.63;1850953;76;21269;-61
2021/01/30 00:53:35;;;;;;;24.30;14.03;;;;;;;-2.60;78.45;97286.39;1851087;77;21565;-61
2021/01/30 00:56:03;;;;;;;23.87;13.35;;;;;;;-2.66;78.38;97287.45;1850951;76;21142;-61
2021/01/30 00:58:31;;;;;;;23.60;12.78;;;;;;;-2.79;78.31;97283.62;1850958;76;21114;-60
2021/01/30 01:00:58;;;;;;;20.68;12.80;;;;;;;-2.93;78.54;97291.09;1851092;76;21316;-62
2021/01/30 01:03:26;;;;;;;21.42;12.82;;;;;;;-3.04;78.74;97295.76;1851019;77;21266;-62
2021/01/30 01:06:03;;;;;;;23.77;13.72;;;;;;;-3.12;78.84;97300.92;1851120;77;21572;-61
2021/01/30 01:08:31;;;;;;;24.63;14.13;;;;;;;-3.20;78.96;97299.79;1851132;76;21661;-61
2021/01/30 01:11:00;;;;;;;21.15;12.95;;;;;;;-3.24;79.08;97304.25;1851145;76;21123;-60
2021/01/30 01:13:29;;;;;;;24.07;13.13;;;;;;;-3.31;79.06;97302.77;1851033;77;21142;-60
2021/01/30 01:15:57;;;;;;;26.02;13.68;;;;;;;-3.43;79.00;97302.29;1851245;77;21209;-61
2021/01/30 01:18:26;;;;;;;22.13;13.40;;;;;;;-3.56;79.25;97311.42;1851148;77;21661;-59
2021/01/30 01:20:53;;;;;;;27.52;13.38;;;;;;;-3.66;79.50;97310.59;1850928;77;21253;-62
2021/01/30 01:23:21;;;;;;;24.15;13.43;;;;;;;-3.75;79.63;97306.92;1851200;77;21529;-62
2021/01/30 01:25:48;;;;;;;27.93;13.93;;;;;;;-3.82;79.78;97311.65;1851527;76;21109;-62
2021/01/30 01:28:16;;;;;;;24.15;14.28;;;;;;;-3.91;79.98;97316.34;1852914;76;21127;-62
2021/01/30 01:30:44;;;;;;;25.82;14.35;;;;;;;-4.03;80.11;97315.02;1852625;76;21189;-60
2021/01/30 01:33:11;;;;;;;25.48;13.45;;;;;;;-4.11;80.40;97320.55;1852721;77;21134;-61
2021/01/30 01:35:39;;;;;;;25.02;12.90;;;;;;;-4.16;80.61;97318.70;1851166;77;21534;-61
2021/01/30 01:38:07;;;;;;;24.50;13.75;;;;;;;-4.16;80.66;97325.40;1851135;76;21095;-61
2021/01/30 01:40:39;;;;;;;26.52;14.40;;;;;;;-4.19;80.82;97323.61;1850909;77;21122;-61
2021/01/30 01:43:21;;;;;;;25.65;14.63;;;;;;;-4.19;80.86;97329.91;1851052;77;21114;-62
2021/01/30 01:46:01;;;;;;;;;;;;;;;-4.25;80.76;97322.48;1853843;76;21655;-61
2021/01/30 01:48:32;;;;;;;25.48;15.03;;;;;;;-4.33;80.87;97322.16;1851315;76;20216;-62
2021/01/30 01:51:04;;;;;;;22.85;14.38;;;;;;;-4.42;80.96;97326.83;1819648;77;21114;-61
2021/01/30 01:53:34;;;;;;;;;;;;;;;-4.43;81.25;97323.83;1822429;79;21138;-61
2021/01/30 01:56:08;;;;;;;28.23;15.60;;;;;;;-4.43;81.27;97309.98;1819643;79;20205;-60
2021/01/30 01:58:40;;;;;;;27.93;15.83;;;;;;;-4.46;81.17;97318.67;1819708;79;21107;-61
2021/01/30 02:01:08;;;;;;;;;;;;;;;-4.52;81.27;97323.45;1823761;78;21548;-61
2021/01/30 02:03:38;;;;;;;29.30;15.10;;;;;;;-4.54;81.36;97318.74;1831628;78;20146;-61
2021/01/30 02:06:06;;;;;;;24.95;14.23;;;;;;;-4.56;81.38;97314.89;1831391;77;21263;-61
2021/01/30 02:08:34;;;;;;;21.70;14.05;;;;;;;-4.54;81.42;97313.71;1831546;78;21654;-63
2021/01/30 02:11:02;;;;;;;22.50;15.43;;;;;;;-4.52;81.35;97312.98;1831526;78;21259;-61
2021/01/30 02:13:38;;;;;;;23.18;13.43;;;;;;;-4.52;81.22;97309.20;1831409;78;21141;-62
2021/01/30 02:16:14;;;;;;;25.15;14.63;;;;;;;-4.51;81.24;97316.35;1831292;78;21141;-61
2021/01/30 02:19:32;;;;;;;25.92;13.85;;;;;;;-4.49;81.03;97314.77;1864780;76;22147;-62
2021/01/30 02:22:40;;;;;;;23.18;13.98;;;;;;;-4.59;81.07;97315.62;1813200;78;21285;-62
2021/01/30 02:25:33;;;;;;;22.42;13.20;;;;;;;-4.63;80.96;97310.37;1795137;78;21122;-62
2021/01/30 02:28:35;;;;;;;27.20;15.78;;;;;;;-4.66;81.13;97308.59;1817020;78;21196;-63
2021/01/30 02:31:41;;;;;;;25.90;14.87;;;;;;;-4.63;81.18;97306.23;1803526;78;21103;-61
2021/01/30 02:34:49;;;;;;;26.20;14.73;;;;;;;-4.62;81.10;97294.10;1827667;77;21118;-61
2021/01/30 02:37:26;;;;;;;22.77;13.65;;;;;;;-4.57;81.14;97288.41;1794997;80;21119;-61
2021/01/30 02:40:02;;;;;;;27.75;13.98;;;;;;;-4.53;80.97;97299.91;1795210;79;21540;-61
2021/01/30 02:42:42;;;;;;;24.00;13.98;;;;;;;-4.51;80.89;97297.06;1795380;80;21169;-60
2021/01/30 02:45:17;;;;;;;24.12;13.70;;;;;;;-4.53;80.75;97295.28;1794774;79;21150;-60
2021/01/30 02:48:01;;;;;;;23.05;13.88;;;;;;;-4.52;80.86;97297.88;1795297;78;21146;-62
2021/01/30 02:50:39;;;;;;;25.77;14.70;;;;;;;-4.51;80.82;97288.66;1795158;80;21268;-60
2021/01/30 02:53:09;;;;;;;32.75;17.15;;;;;;;-4.53;80.67;97283.95;1795115;78;21106;-61
2021/01/30 02:55:37;;;;;;;29.75;17.50;;;;;;;-4.55;80.73;97281.77;1795104;78;21169;-61
2021/01/30 02:58:07;;;;;;;28.32;16.05;;;;;;;-4.63;80.78;97284.84;1801529;78;21284;-60
2021/01/30 03:00:35;;;;;;;29.63;16.55;;;;;;;-4.61;80.91;97283.22;1817461;78;21103;-60
2021/01/30 03:03:04;;;;;;;29.48;16.80;;;;;;;-4.60;80.95;97292.52;1809993;78;21156;-61
2021/01/30 03:05:33;;;;;;;34.67;19.15;;;;;;;-4.59;80.89;97287.08;1827678;78;21132;-62
2021/01/30 03:08:13;;;;;;;30.72;18.07;;;;;;;-4.62;80.81;97285.30;1824093;78;21160;-62
2021/01/30 03:10:50;;;;;;;27.05;16.17;;;;;;;-4.62;80.92;97292.84;1795132;79;21316;-61
2021/01/30 03:13:29;;;;;;;27.45;17.48;;;;;;;-4.62;80.89;97289.06;1814400;78;21285;-61
2021/01/30 03:16:11;;;;;;;30.00;17.05;;;;;;;-4.64;80.72;97283.09;1795107;78;21228;-61
2021/01/30 03:19:02;;;;;;;28.02;16.87;;;;;;;-4.66;80.75;97279.66;1810150;78;21138;-60
2021/01/30 03:21:31;;;;;;;33.13;18.30;;;;;;;-4.67;80.74;97276.69;1813904;79;21111;-62
2021/01/30 03:24:03;;;;;;;26.40;15.38;;;;;;;-4.74;80.78;97277.20;1813542;78;21099;-61
2021/01/30 03:26:34;;;;;;;23.38;14.47;;;;;;;-4.74;80.91;97277.61;1813595;78;21253;-62
2021/01/30 03:29:03;;;;;;;29.63;16.55;;;;;;;-4.74;80.89;97278.88;1813163;78;21155;-60
2021/01/30 03:31:31;;;;;;;26.87;15.50;;;;;;;-4.77;81.00;97280.86;1812579;78;21178;-62
2021/01/30 03:33:59;;;;;;;27.10;15.40;;;;;;;-4.75;81.13;97279.28;1812788;78;21182;-59
2021/01/30 03:36:26;;;;;;;25.88;14.65;;;;;;;-4.76;81.08;97269.98;1813261;78;21107;-61
2021/01/30 03:38:54;;;;;;;23.55;14.20;;;;;;;-4.75;81.13;97274.25;1812874;79;21095;-62
2021/01/30 03:41:22;;;;;;;24.40;14.43;;;;;;;-4.74;81.17;97270.92;1813405;78;21265;-60
2021/01/30 03:43:52;;;;;;;22.77;13.83;;;;;;;-4.68;81.20;97272.45;1813228;78;21138;-61
2021/01/30 03:46:20;;;;;;;24.27;14.40;;;;;;;-4.64;81.13;97273.03;1812851;78;21128;-67
2021/01/30 03:48:48;;;;;;;22.30;13.95;;;;;;;-4.65;81.04;97271.33;1812942;78;21258;-61
2021/01/30 03:51:16;;;;;;;22.90;14.13;;;;;;;-4.63;81.17;97269.74;1813215;79;21099;-62
2021/01/30 03:53:44;;;;;;;25.95;14.53;;;;;;;-4.61;81.08;97260.58;1812919;78;21256;-62
2021/01/30 03:56:12;;;;;;;23.18;14.10;;;;;;;-4.59;80.99;97270.72;1812975;78;21233;-62
2021/01/30 03:58:40;;;;;;;23.15;13.55;;;;;;;-4.59;81.06;97274.09;1812829;78;21126;-63
2021/01/30 04:01:08;;;;;;;23.15;13.53;;;;;;;-4.57;81.14;97269.13;1812979;79;21346;-61
2021/01/30 04:03:36;;;;;;;22.07;14.28;;;;;;;-4.55;80.96;97267.55;1813004;79;21269;-62
2021/01/30 04:06:05;;;;;;;22.15;13.10;;;;;;;-4.55;81.02;97266.29;1812804;78;21178;-62
2021/01/30 04:08:32;;;;;;;25.40;13.98;;;;;;;-4.55;81.06;97275.09;1812838;78;21158;-61
2021/01/30 04:11:01;;;;;;;27.15;15.98;;;;;;;-4.54;81.12;97270.92;1812822;79;21162;-63
2021/01/30 04:13:28;;;;;;;29.48;15.98;;;;;;;-4.49;81.28;97274.49;1812830;78;21257;-62
2021/01/30 04:15:56;;;;;;;30.80;16.62;;;;;;;-4.46;81.16;97264.54;1812889;78;21100;-60
2021/01/30 04:18:24;;;;;;;24.60;15.05;;;;;;;-4.40;81.01;97262.27;1820639;78;21584;-62
2021/01/30 04:20:52;;;;;;;27.52;16.42;;;;;;;-4.37;81.08;97267.45;1827151;77;21103;-61
2021/01/30 04:23:20;;;;;;;28.32;16.05;;;;;;;-4.34;80.93;97264.20;1827430;77;21293;-61
2021/01/30 04:25:48;;;;;;;26.27;15.70;;;;;;;-4.33;80.91;97259.21;1827252;77;21284;-61
2021/01/30 04:28:16;;;;;;;26.90;15.08;;;;;;;-4.36;80.76;97260.34;1827550;78;21557;-62
2021/01/30 04:30:43;;;;;;;26.23;14.78;;;;;;;-4.38;80.95;97258.16;1827387;78;21091;-61
2021/01/30 04:33:11;;;;;;;26.07;14.80;;;;;;;-4.35;81.02;97268.39;1827181;78;21245;-62
2021/01/30 04:35:39;;;;;;;26.00;14.75;;;;;;;-4.30;80.90;97272.33;1827430;77;21099;-61
2021/01/30 04:38:08;;;;;;;27.73;16.67;;;;;;;-4.24;80.89;97277.64;1827340;78;21348;-62
2021/01/30 04:40:45;;;;;;;29.18;17.82;;;;;;;-4.19;80.70;97277.42;1827109;77;21288;-62
2021/01/30 04:43:33;;;;;;;34.43;19.57;;;;;;;-4.17;80.51;97275.43;1827169;77;21147;-62
2021/01/30 04:46:16;;;;;;;35.45;19.42;;;;;;;-4.16;80.42;97279.66;1827049;78;21154;-63
2021/01/30 04:48:58;;;;;;;31.73;18.50;;;;;;;-4.24;80.31;97282.67;1827411;78;21599;-60
2021/01/30 04:51:40;;;;;;;29.02;17.17;;;;;;;-4.30;80.45;97281.14;1825968;78;21265;-62
2021/01/30 04:54:31;;;;;;;26.73;16.65;;;;;;;-4.36;80.58;97281.34;1827162;77;21115;-62
2021/01/30 04:57:17;;;;;;;25.68;15.32;;;;;;;-4.34;80.74;97286.46;1826916;77;21130;-61
2021/01/30 05:00:20;;;;;;;32.60;17.45;;;;;;;-4.31;80.76;97279.03;1827165;78;21173;-61
2021/01/30 05:03:03;;;;;;;34.18;19.15;;;;;;;-4.30;80.77;97278.25;1787874;80;21240;-63
2021/01/30 05:05:31;;;;;;;39.88;21.05;;;;;;;-4.28;80.99;97272.00;1769072;81;21179;-63
2021/01/30 05:08:16;;;;;;;44.53;21.25;;;;;;;-4.23;80.95;97271.38;1757364;82;21161;-62
2021/01/30 05:10:52;;;;;;;37.38;21.60;;;;;;;-4.22;81.08;97275.64;1768739;81;21274;-62
2021/01/30 05:13:39;;;;;;;37.85;21.25;;;;;;;-4.16;81.22;97268.32;1757545;82;21117;-62
2021/01/30 05:16:25;;;;;;;39.85;20.70;;;;;;;-4.09;81.14;97272.37;1752698;81;21186;-62
2021/01/30 05:19:01;;;;;;;34.78;18.95;;;;;;;-4.05;81.15;97265.37;1753544;81;21271;-61
2021/01/30 05:21:58;;;;;;;35.17;19.67;;;;;;;-4.03;81.04;97280.16;1800037;79;21135;-63
2021/01/30 05:24:28;;;;;;;32.90;19.52;;;;;;;-4.01;81.14;97271.02;1821352;77;21103;-62
2021/01/30 05:27:20;;;;;;;33.38;19.10;;;;;;;-3.98;81.03;97278.28;1821664;77;21150;-63
2021/01/30 05:30:10;;;;;;;31.55;18.92;;;;;;;-3.98;81.00;97278.28;1821409;79;21123;-61
2021/01/30 05:33:02;;;;;;;35.48;18.77;;;;;;;-3.92;81.17;97280.18;1820995;78;21138;-61
2021/01/30 05:35:38;;;;;;;37.53;18.85;;;;;;;-3.86;81.14;97280.44;1821792;79;21138;-62
2021/01/30 05:38:12;;;;;;;38.90;20.75;;;;;;;-3.78;81.07;97290.42;1821367;78;21115;-60
2021/01/30 05:40:50;;;;;;;32.60;19.25;;;;;;;-3.69;80.87;97294.09;1749396;77;21272;-62
2021/01/30 05:43:25;;;;;;;36.70;18.77;;;;;;;-3.65;80.72;97298.47;1821737;77;21514;-62
2021/01/30 05:45:57;;;;;;;26.80;15.93;;;;;;;-3.73;80.05;97289.34;1821136;78;21118;-62
2021/01/30 05:48:37;;;;;;;;;;;;;;;-3.93;80.29;97282.25;1824142;79;21288;-62
2021/01/30 05:51:26;;;;;;;35.08;18.45;;;;;;;-4.06;80.62;97284.67;1821604;79;20139;-63
2021/01/30 05:53:54;;;;;;;32.60;19.02;;;;;;;-4.09;81.23;97291.26;1821044;77;21139;-62
2021/01/30 05:56:22;;;;;;;36.73;19.85;;;;;;;-3.88;81.25;97293.78;1821663;77;21257;-62
2021/01/30 05:58:51;;;;;;;34.88;18.95;;;;;;;-3.48;81.51;97302.52;1821561;79;21138;-62
2021/01/30 06:01:25;;;;;;;31.45;19.27;;;;;;;-2.88;80.59;97308.12;1821355;79;21146;-62
2021/01/30 06:04:10;;;;;;;35.33;19.45;;;;;;;-2.46;78.80;97302.90;1821526;77;21281;-62
2021/01/30 06:06:53;;;;;;;37.38;18.65;;;;;;;-1.98;78.66;97300.31;1821313;79;21130;-64
2021/01/30 06:09:41;;;;;;;33.90;20.10;;;;;;;-1.43;77.05;97302.47;1821595;77;21162;-64
2021/01/30 06:12:36;;;;;;;35.33;19.52;;;;;;;-1.38;76.15;97305.14;1821310;79;21130;-63
2021/01/30 06:15:21;;;;;;;29.98;17.48;;;;;;;-1.52;75.62;97307.67;1801602;79;21309;-63
2021/01/30 06:17:49;;;;;;;33.05;17.70;;;;;;;-1.79;74.88;97304.70;1820796;77;21099;-63
2021/01/30 06:20:28;;;;;;;34.70;18.73;;;;;;;-2.19;74.85;97304.64;1812992;78;21159;-62
2021/01/30 06:23:10;;;;;;;30.65;18.00;;;;;;;-2.69;75.58;97310.07;1812841;79;21135;-63
2021/01/30 06:25:42;;;;;;;32.67;19.23;;;;;;;-3.08;76.54;97312.84;1812739;79;21164;-63
2021/01/30 06:28:25;;;;;;;31.07;17.65;;;;;;;-3.39;77.64;97320.91;1812792;78;21147;-63
2021/01/30 06:30:57;;;;;;;34.05;18.82;;;;;;;-3.56;78.35;97320.23;1812712;78;21127;-63
2021/01/30 06:33:28;;;;;;;;;;;;;;;-3.74;78.84;97311.18;1814769;78;21142;-63
2021/01/30 06:36:10;;;;;;;35.60;20.32;;;;;;;-3.78;79.70;97310.98;1813051;79;20151;-64
2021/01/30 06:38:52;;;;;;;35.00;19.52;;;;;;;-3.65;79.85;97309.81;1812665;78;21123;-62
2021/01/30 06:41:28;;;;;;;33.92;19.05;;;;;;;-3.66;79.72;97301.40;1812174;78;21146;-63
2021/01/30 06:44:16;;;;;;;37.20;19.77;;;;;;;-3.65;80.13;97304.77;1812217;78;21696;-64
2021/01/30 06:47:17;;;;;;;43.60;23.18;;;;;;;-3.60;79.97;97304.55;1816053;78;21151;-63
2021/01/30 06:49:50;;;;;;;47.75;26.50;;;;;;;-3.68;79.92;97303.40;1811916;78;21138;-63
2021/01/30 06:52:31;;;;;;;50.75;25.35;;;;;;;-3.85;80.42;97296.01;1812955;78;21127;-63
2021/01/30 06:55:13;;;;;;;57.38;30.90;;;;;;;-3.91;80.87;97291.14;1812715;79;21131;-63
2021/01/30 06:57:51;;;;;;;;;;;;;;;-3.97;81.07;97290.47;1815406;78;21163;-63
2021/01/30 07:00:24;;;;;;;71.57;35.55;;;;;;;-3.98;81.54;97292.55;1812220;78;20235;-63
2021/01/30 07:03:14;;;;;;;75.47;38.08;;;;;;;-3.91;81.86;97288.63;1813052;78;21269;-63
2021/01/30 07:05:57;;;;;;;66.92;34.45;;;;;;;-3.76;81.63;97283.78;1813247;78;21514;-62
2021/01/30 07:08:40;;;;;;;54.70;30.65;;;;;;;-3.65;81.60;97282.09;1814298;78;21589;-63
2021/01/30 07:11:40;;;;;;;70.95;36.80;;;;;;;-3.47;81.72;97281.94;1870548;76;22113;-63
2021/01/30 07:14:36;;;;;;;65.05;35.13;;;;;;;-3.35;81.39;97279.89;1827828;77;21273;-64
2021/01/30 07:17:18;;;;;;;48.68;29.20;;;;;;;-3.20;81.06;97280.87;1827605;78;21284;-61
2021/01/30 07:20:00;;;;;;;51.65;28.55;;;;;;;-3.11;80.54;97282.45;1821221;78;21149;-63
2021/01/30 07:22:43;;;;;;;41.55;24.72;;;;;;;-3.06;80.43;97278.44;1822500;77;21134;-64
2021/01/30 07:25:16;;;;;;;55.70;27.93;;;;;;;-2.98;80.09;97288.40;1826160;78;21102;-64
2021/01/30 07:27:50;;;;;;;48.08;26.97;;;;;;;-3.07;79.21;97289.34;1827580;78;21125;-62
2021/01/30 07:30:44;;;;;;;64.65;32.90;;;;;;;-3.20;79.12;97292.22;1808109;78;21312;-63
2021/01/30 07:33:24;;;;;;;49.45;27.27;;;;;;;-3.41;79.85;97289.34;1827986;78;21127;-63
2021/01/30 07:36:06;;;;;;;50.50;27.00;;;;;;;-3.42;80.53;97291.39;1825769;77;21139;-63
2021/01/30 07:38:47;;;;;;;53.30;29.72;;;;;;;-3.43;80.50;97285.90;1827763;78;21175;-63
2021/01/30 07:41:30;;;;;;;46.25;25.88;;;;;;;-3.46;80.89;97287.05;1826880;78;21141;-63
2021/01/30 07:44:20;;;;;;;51.65;32.08;;;;;;;-3.33;81.35;97282.92;1825283;78;21735;-61
2021/01/30 07:47:08;;;;;;;49.27;28.45;;;;;;;-3.12;81.11;97286.64;1827773;78;21130;-63
2021/01/30 07:49:40;;;;;;;55.00;31.48;;;;;;;-2.97;80.84;97282.98;1827504;78;21316;-63
2021/01/30 07:52:15;;;;;;;34.05;19.98;;;;;;;-2.81;80.62;97284.38;1827661;78;21260;-61
2021/01/30 07:54:53;;;;;;;58.80;31.90;;;;;;;-2.75;79.97;97294.69;1827305;78;21134;-64
2021/01/30 07:57:44;;;;;;;62.23;34.13;;;;;;;-2.76;79.71;97298.03;1827623;77;21098;-63
2021/01/30 08:00:32;;;;;;;66.55;34.88;;;;;;;-2.78;79.60;97295.44;1827514;77;21284;-63
2021/01/30 08:03:37;;;;;;;65.97;33.33;;;;;;;-2.86;79.71;97304.41;1827488;77;21099;-63
2021/01/30 08:06:27;;;;;;;57.93;32.35;;;;;;;-2.95;79.95;97296.11;1827780;78;21336;-63
2021/01/30 08:09:28;;;;;;;76.72;38.60;;;;;;;-3.00;80.07;97298.87;1827466;78;21130;-62
2021/01/30 08:12:21;;;;;;;69.87;38.98;;;;;;;-3.02;80.29;97305.52;1827665;77;21257;-63
2021/01/30 08:15:09;;;;;;;64.00;33.73;;;;;;;-2.98;80.45;97303.95;1827334;77;21579;-63
2021/01/30 08:18:00;;;;;;;57.45;29.82;;;;;;;-2.96;80.49;97293.52;1827565;78;21099;-63
2021/01/30 08:20:42;;;;;;;58.95;32.28;;;;;;;-3.00;80.64;97294.19;1827444;77;21082;-62
2021/01/30 08:23:33;;;;;;;64.25;33.18;;;;;;;-3.02;80.92;97294.56;1827000;77;21138;-62
2021/01/30 08:26:26;;;;;;;63.58;32.60;;;;;;;-3.04;80.89;97299.55;1827040;78;21135;-63
2021/01/30 08:29:24;;;;;;;63.20;32.00;;;;;;;-3.02;81.17;97285.33;1826910;78;21265;-64
2021/01/30 08:31:57;;;;;;;75.00;39.15;;;;;;;-2.94;80.90;97286.87;1827065;77;21095;-63
2021/01/30 08:34:31;;;;;;;67.50;34.63;;;;;;;-2.79;80.67;97284.05;1827206;77;21560;-64
2021/01/30 08:37:17;;;;;;;58.90;32.08;;;;;;;-2.64;80.22;97289.22;1826895;77;21126;-63
2021/01/30 08:40:14;;;;;;;50.00;26.93;;;;;;;-2.62;79.75;97296.87;1826970;77;21276;-63
2021/01/30 08:42:56;;;;;;;39.60;22.45;;;;;;;-2.63;79.48;97296.39;1826769;78;21130;-63
2021/01/30 08:45:32;;;;;;;41.40;24.57;;;;;;;-2.70;79.54;97299.09;1826257;77;21135;-63
2021/01/30 08:48:26;;;;;;;44.05;24.30;;;;;;;-2.68;79.70;97292.84;1827171;78;21694;-62
2021/01/30 08:50:57;;;;;;;38.88;21.02;;;;;;;-2.63;79.72;97285.88;1827061;77;21118;-63
2021/01/30 08:53:30;;;;;;;36.42;22.22;;;;;;;-2.51;79.40;97280.82;1826883;78;21142;-64
2021/01/30 08:56:04;;;;;;;39.30;23.12;;;;;;;-2.44;79.11;97282.34;1826951;78;21683;-63
2021/01/30 08:58:40;;;;;;;44.88;26.05;;;;;;;-2.40;79.04;97280.36;1825820;77;21138;-60
2021/01/30 09:01:25;;;;;;;47.25;25.12;;;;;;;-2.40;79.42;97275.31;1827014;78;21138;-64
2021/01/30 09:04:02;;;;;;;41.77;22.62;;;;;;;-2.26;79.45;97277.47;1827065;77;21099;-64
2021/01/30 09:06:48;;;;;;;36.90;22.00;;;;;;;-2.20;78.72;97286.50;1827053;78;21134;-62
2021/01/30 09:09:19;;;;;;;32.42;19.17;;;;;;;-2.15;78.72;97283.73;1827186;77;21272;-63
2021/01/30 09:11:49;;;;;;;;;;;;;;;-2.21;78.04;97289.45;1816264;78;21560;-63
2021/01/30 09:14:22;;;;;;;39.08;22.65;;;;;;;-2.27;78.54;97282.91;1812794;78;20131;-64
2021/01/30 09:17:17;;;;;;;39.20;23.38;;;;;;;-2.27;78.62;97288.36;1812851;78;21163;-64
2021/01/30 09:20:22;;;;;;;39.92;22.67;;;;;;;-2.24;78.85;97281.77;1812787;78;21123;-64
2021/01/30 09:23:30;;;;;;;43.40;24.43;;;;;;;-2.28;79.14;97281.20;1812828;78;21257;-63
2021/01/30 09:26:10;;;;;;;35.95;20.32;;;;;;;-2.45;80.73;97274.30;1813008;78;21123;-63
2021/01/30 09:28:38;;;;;;;36.65;19.90;;;;;;;-2.68;81.43;97279.81;1812936;78;21115;-63
2021/01/30 09:34:04;;;;;;;39.58;22.62;;;;;;;-2.87;82.96;97274.93;1800419;80;21579;-63
2021/01/30 09:36:41;;;;;;;43.13;20.90;;;;;;;-2.94;83.70;97256.17;1800963;79;21318;-64
2021/01/30 09:39:23;;;;;;;45.25;20.48;;;;;;;-2.96;84.67;97262.83;1800392;80;21263;-64
2021/01/30 09:42:19;;;;;;;38.92;22.45;;;;;;;-2.94;85.60;97257.44;1889845;76;22156;-64
2021/01/30 09:45:02;;;;;;;34.63;21.50;;;;;;;-3.02;85.93;97241.16;1861433;77;21153;-63
2021/01/30 09:47:30;;;;;;;40.30;23.10;;;;;;;-3.08;86.56;97245.59;1791478;80;21110;-62
2021/01/30 09:50:12;;;;;;;41.23;23.35;;;;;;;-3.14;87.07;97239.45;1791691;80;21142;-63
2021/01/30 09:52:51;;;;;;;52.40;27.20;;;;;;;-3.15;87.73;97231.44;1810434;79;21162;-63
2021/01/30 09:55:21;;;;;;;60.15;28.55;;;;;;;-3.13;87.92;97229.44;1790504;80;21171;-62
2021/01/30 09:57:50;;;;;;;45.55;24.23;;;;;;;-3.06;88.22;97235.54;1791856;80;21693;-63
2021/01/30 10:00:24;;;;;;;37.90;20.95;;;;;;;-3.06;87.65;97226.30;1810306;79;21261;-63
2021/01/30 10:03:22;;;;;;;40.65;21.97;;;;;;;-3.10;87.92;97221.97;1858776;76;22155;-63
2021/01/30 10:05:53;;;;;;;42.20;23.40;;;;;;;-3.12;88.04;97223.98;1742212;81;21273;-63
2021/01/30 10:08:31;;;;;;;36.33;19.10;;;;;;;-3.07;88.13;97222.48;1808113;79;21250;-63
2021/01/30 10:11:17;;;;;;;35.65;19.23;;;;;;;-3.08;87.92;97216.95;1808406;79;21100;-63
2021/01/30 10:13:50;;;;;;;34.35;18.82;;;;;;;-3.09;88.16;97217.77;1805899;78;21159;-63
2021/01/30 10:16:22;;;;;;;32.30;18.80;;;;;;;-3.15;88.31;97218.83;1808064;79;21135;-63
2021/01/30 10:19:12;;;;;;;36.30;20.20;;;;;;;-3.16;88.55;97211.64;1808336;79;21696;-63
2021/01/30 10:21:42;;;;;;;37.42;21.60;;;;;;;-3.13;89.21;97199.53;1807522;79;21140;-63
2021/01/30 10:24:15;;;;;;;41.75;22.73;;;;;;;-3.12;89.53;97196.22;1808150;79;21162;-63
2021/01/30 10:26:44;;;;;;;39.70;21.00;;;;;;;-3.09;89.92;97190.02;1808034;79;21261;-64
2021/01/30 10:29:18;;;;;;;39.00;21.45;;;;;;;-2.96;89.67;97196.36;1808444;79;21656;-63
2021/01/30 10:31:53;;;;;;;40.92;20.45;;;;;;;-2.91;89.27;97187.28;1807952;78;21265;-63
2021/01/30 10:34:38;;;;;;;32.13;18.55;;;;;;;-2.92;89.07;97181.80;1808044;79;21104;-64
2021/01/30 10:37:20;;;;;;;26.00;13.83;;;;;;;-2.92;88.86;97176.74;1808312;79;21135;-63
2021/01/30 10:39:58;;;;;;;30.10;17.80;;;;;;;-2.99;88.71;97179.85;1808022;79;21150;-64
2021/01/30 10:42:31;;;;;;;32.50;19.77;;;;;;;-3.09;89.09;97171.95;1808223;79;21099;-63
2021/01/30 10:45:19;;;;;;;31.57;18.82;;;;;;;-3.07;89.50;97168.23;1808324;79;21550;-64
2021/01/30 10:47:54;;;;;;;35.40;20.00;;;;;;;-3.02;89.59;97161.68;1808037;78;21123;-63
2021/01/30 10:50:34;;;;;;;36.75;20.70;;;;;;;-2.93;89.87;97151.03;1808087;78;21680;-65
2021/01/30 10:53:23;;;;;;;41.28;21.93;;;;;;;-2.77;89.59;97157.45;1794583;79;21147;-63
2021/01/30 10:55:52;;;;;;;38.60;21.12;;;;;;;-2.73;89.19;97152.56;1773223;78;21132;-63
2021/01/30 10:58:33;;;;;;;40.85;22.37;;;;;;;-2.71;89.44;97145.91;1808007;78;21316;-63
2021/01/30 11:01:14;;;;;;;39.55;20.45;;;;;;;-2.68;89.47;97138.84;1808117;78;21123;-63
2021/01/30 11:03:56;;;;;;;41.13;21.77;;;;;;;-2.69;89.65;97139.66;1804148;78;21562;-63
2021/01/30 11:06:36;;;;;;;40.40;23.70;;;;;;;-2.65;89.32;97137.66;1808217;78;21273;-63
2021/01/30 11:09:25;;;;;;;38.80;21.52;;;;;;;-2.53;89.36;97130.50;1808005;79;21123;-63
2021/01/30 11:12:20;;;;;;;38.08;21.55;;;;;;;-2.47;88.70;97131.09;1809020;79;21135;-64
2021/01/30 11:14:48;;;;;;;39.27;20.75;;;;;;;-2.52;88.59;97132.23;1797206;78;21103;-63
2021/01/30 11:17:34;;;;;;;34.63;20.23;;;;;;;-2.57;88.75;97125.30;1808236;79;21100;-63
2021/01/30 11:20:04;;;;;;;36.30;19.35;;;;;;;-2.56;88.83;97120.71;1808812;79;21142;-63
2021/01/30 11:22:32;;;;;;;36.73;20.20;;;;;;;-2.58;88.91;97105.50;1808280;79;21163;-63
2021/01/30 11:25:08;;;;;;;32.73;18.35;;;;;;;-2.61;88.71;97101.62;1809974;79;21138;-63
2021/01/30 11:27:49;;;;;;;33.55;16.87;;;;;;;-2.63;88.96;97101.56;1807725;79;21260;-63
2021/01/30 11:30:22;;;;;;;34.83;18.80;;;;;;;-2.67;88.58;97073.63;1808854;79;21151;-63
2021/01/30 11:32:56;;;;;;;32.42;17.17;;;;;;;-2.74;88.77;97071.75;1808540;79;21937;-63
2021/01/30 11:35:34;;;;;;;38.13;21.27;;;;;;;-2.80;89.17;97071.12;1809429;78;21119;-64
2021/01/30 11:38:16;;;;;;;40.60;22.37;;;;;;;-2.81;89.44;97062.26;1810838;78;21222;-64
2021/01/30 11:40:48;;;;;;;50.43;23.07;;;;;;;-2.84;89.56;97055.45;1809641;78;21154;-64
2021/01/30 11:43:17;;;;;;;51.00;25.57;;;;;;;-2.84;89.74;97048.72;1800845;79;21138;-64
2021/01/30 11:45:46;;;;;;;49.60;24.57;;;;;;;-2.84;89.93;97052.92;1807616;78;21276;-64
2021/01/30 11:48:15;;;;;;;51.60;26.25;;;;;;;-2.76;90.20;97045.59;1807629;78;21143;-63
2021/01/30 11:50:43;;;;;;;47.03;23.60;;;;;;;-2.71;90.16;97047.45;1807567;78;21091;-63
2021/01/30 11:53:22;;;;;;;54.15;25.57;;;;;;;-2.73;89.74;97045.27;1807657;78;21151;-63
2021/01/30 11:55:50;;;;;;;56.10;27.62;;;;;;;-2.77;89.97;97037.55;1807425;78;21262;-64
2021/01/30 11:58:20;;;;;;;55.20;28.42;;;;;;;-2.74;90.28;97037.67;1807412;78;21270;-63
2021/01/30 12:00:49;;;;;;;55.38;26.27;;;;;;;-2.74;90.19;97033.88;1807376;79;21103;-63
2021/01/30 12:03:26;;;;;;;59.42;27.02;;;;;;;-2.73;90.06;97034.32;1807387;78;21742;-63
2021/01/30 12:05:55;;;;;;;56.20;26.15;;;;;;;-2.74;90.17;97027.16;1807485;79;21577;-63
2021/01/30 12:08:25;;;;;;;46.53;25.65;;;;;;;-2.66;90.16;97023.20;1807418;79;21123;-63